CYZG

Salluit Airport

ICAO Code CYZG
IATA Code YZG
Name Salluit Airport
Location Salluit, Quebec, CA
Elevation 745 Feet / 227.1 Meters
Latitude 62.17944444
Longitude -75.66722222
METAR CYZG 012100Z 02011KT 15SM SCT011 BKN045 07/03 A2970 RMK SC4SC3 LAST STFD OBS/NXT 021200 SLP071
Extra information Display Charts and CFS
Display NOTAMS
Runway Length Width Surface Elevation
03 3523 ft 100 ft GRAVEL 723 ft
21 3523 ft 100 ft GRAVEL 745 ft